Time;durP1;ratioP1;P1;durP2;ratioP2;P2;SDS_P1;SDS_P2;PMS_P1;PMS_P2;Temp;Humidity;BMP_temperature;BMP_pressure;BME280_temperature;BME280_humidity;BME280_pressure;Samples;Min_cycle;Max_cycle;Signal;HPM_P1;HPM_P2
2022/03/06 00:00:34;;;;;;;19.73;13.57;;;0.20;1.00;;;;;;5035878;28;20221;-82
2022/03/06 00:03:09;;;;;;;20.20;13.93;;;0.20;1.00;;;;;;5005614;28;20212;-82
2022/03/06 00:05:49;;;;;;;21.03;13.63;;;0.20;1.00;;;;;;5016692;28;20197;-81
2022/03/06 00:08:28;;;;;;;21.37;13.03;;;0.10;1.00;;;;;;5004777;28;20228;-81
2022/03/06 00:11:05;;;;;;;20.43;13.47;;;-0.10;1.00;;;;;;5036122;28;20244;-81
2022/03/06 00:13:46;;;;;;;21.33;14.07;;;-0.20;1.00;;;;;;5035322;28;20277;-82
2022/03/06 00:16:14;;;;;;;22.27;14.37;;;2.20;1.00;;;;;;5002199;28;20202;-81
2022/03/06 00:18:45;;;;;;;23.10;14.13;;;-0.30;1.00;;;;;;4997419;28;20205;-81
2022/03/06 00:21:25;;;;;;;23.97;15.90;;;0.90;1.00;;;;;;4998116;28;20558;-82
2022/03/06 00:23:59;;;;;;;27.10;15.83;;;-0.30;1.00;;;;;;5010045;28;20284;-83
2022/03/06 00:26:36;;;;;;;22.00;14.33;;;-0.20;1.00;;;;;;4994315;28;20587;-84
2022/03/06 00:29:13;;;;;;;25.53;15.63;;;-0.30;1.00;;;;;;4998023;28;20197;-82
2022/03/06 00:31:43;;;;;;;21.10;14.50;;;-1.00;1.00;;;;;;5010564;28;20300;-80
2022/03/06 00:34:17;;;;;;;25.30;15.63;;;-0.40;1.00;;;;;;5019999;28;20209;-83
2022/03/06 00:36:47;;;;;;;21.70;14.87;;;-1.20;1.00;;;;;;5017181;28;20193;-82
2022/03/06 00:39:22;;;;;;;19.77;13.53;;;-1.60;1.00;;;;;;5011170;28;20192;-80
2022/03/06 00:41:51;;;;;;;23.00;14.77;;;-0.60;1.00;;;;;;5019917;28;20201;-81
2022/03/06 00:44:21;;;;;;;26.97;15.97;;;-0.60;1.00;;;;;;5003325;28;20205;-81
2022/03/06 00:46:49;;;;;;;22.93;15.43;;;-2.80;1.00;;;;;;4999856;28;20271;-81
2022/03/06 00:49:23;;;;;;;23.67;15.57;;;0.20;1.00;;;;;;5022296;28;20228;-81
2022/03/06 00:51:54;;;;;;;22.60;15.13;;;-0.80;1.00;;;;;;5020554;28;20593;-83
2022/03/06 00:54:25;;;;;;;23.60;15.30;;;-0.50;1.00;;;;;;5017188;28;20303;-80
2022/03/06 00:56:57;;;;;;;23.30;14.27;;;0.90;1.00;;;;;;5002419;28;20197;-81
2022/03/06 00:59:32;;;;;;;20.83;14.13;;;-0.70;1.00;;;;;;5014475;28;20197;-80
2022/03/06 01:02:02;;;;;;;21.53;14.23;;;-0.80;1.00;;;;;;5013794;28;20216;-81
2022/03/06 01:04:34;;;;;;;26.97;15.03;;;-0.50;1.00;;;;;;5017547;28;20210;-81
2022/03/06 01:07:04;;;;;;;24.73;15.30;;;-0.80;1.00;;;;;;4994779;28;20202;-81
2022/03/06 01:09:35;;;;;;;27.27;15.23;;;-1.90;1.00;;;;;;4997706;28;20201;-81
2022/03/06 01:12:03;;;;;;;24.63;15.03;;;-1.10;21.50;;;;;;4997295;28;20280;-81
2022/03/06 01:14:34;;;;;;;24.00;14.60;;;-0.80;1.00;;;;;;4979080;28;20264;-82
2022/03/06 01:17:02;;;;;;;23.33;16.23;;;-1.90;25.70;;;;;;5015296;28;20203;-81
2022/03/06 01:19:38;;;;;;;25.07;15.10;;;-0.80;16.90;;;;;;5017899;28;20213;-81
2022/03/06 01:22:08;;;;;;;22.77;15.07;;;-0.60;11.40;;;;;;4995788;28;20209;-81
2022/03/06 01:24:36;;;;;;;21.47;15.23;;;0.20;99.90;;;;;;5009061;28;20216;-81
2022/03/06 01:27:08;;;;;;;20.60;13.83;;;-2.20;99.90;;;;;;5010696;28;20312;-82
2022/03/06 01:29:45;;;;;;;24.10;14.83;;;-0.90;94.50;;;;;;5010181;28;20205;-80
2022/03/06 01:32:13;;;;;;;20.83;13.77;;;0.50;99.90;;;;;;4991777;28;20221;-82
2022/03/06 01:34:45;;;;;;;23.40;14.30;;;1.50;84.40;;;;;;5013132;28;20220;-81
2022/03/06 01:37:18;;;;;;;22.73;14.53;;;-0.20;47.50;;;;;;4996058;28;20211;-81
2022/03/06 01:39:48;;;;;;;19.17;13.87;;;-0.90;27.60;;;;;;5016992;28;20303;-81
2022/03/06 01:42:29;;;;;;;26.20;14.50;;;-0.80;50.90;;;;;;5002599;28;20204;-81
2022/03/06 01:45:21;;;;;;;19.93;14.30;;;-0.70;1.00;;;;;;5025909;28;20201;-81
2022/03/06 01:48:11;;;;;;;24.00;14.83;;;-0.60;1.00;;;;;;5004101;28;20243;-82
2022/03/06 01:50:51;;;;;;;20.50;13.47;;;-0.50;1.00;;;;;;5010443;28;20202;-81
2022/03/06 01:53:26;;;;;;;27.57;14.70;;;-0.20;1.00;;;;;;4995749;28;20258;-83
2022/03/06 01:55:54;;;;;;;23.03;14.63;;;-0.30;1.00;;;;;;5015710;28;20197;-82
2022/03/06 01:59:00;;;;;;;20.77;13.67;;;0.70;1.00;;;;;;4964619;28;20342;-81
2022/03/06 02:01:32;;;;;;;21.53;13.70;;;-0.30;1.00;;;;;;4971825;28;20214;-81
2022/03/06 02:04:02;;;;;;;20.10;13.17;;;0.90;1.00;;;;;;4944281;28;20210;-81
2022/03/06 02:06:33;;;;;;;21.93;14.57;;;-0.30;1.00;;;;;;4961656;28;20282;-82
2022/03/06 02:09:00;;;;;;;22.13;13.23;;;2.10;1.00;;;;;;4924678;28;20218;-80
2022/03/06 02:11:31;;;;;;;20.60;12.97;;;0.10;1.00;;;;;;4971177;28;20579;-81
2022/03/06 02:14:02;;;;;;;19.97;13.60;;;-0.30;1.00;;;;;;4960416;28;20744;-79
2022/03/06 02:16:40;;;;;;;22.30;12.97;;;0.10;1.00;;;;;;4946428;28;20198;-80
2022/03/06 02:19:14;;;;;;;18.33;13.33;;;0.90;1.00;;;;;;4956895;28;20747;-81
2022/03/06 02:21:48;;;;;;;17.50;12.70;;;-0.20;1.00;;;;;;4953651;28;20705;-83
2022/03/06 02:24:15;;;;;;;20.10;13.10;;;-0.20;1.00;;;;;;5024625;28;20205;-83
2022/03/06 02:26:45;;;;;;;23.80;13.53;;;-1.20;1.00;;;;;;5012452;28;20696;-81
2022/03/06 02:29:13;;;;;;;22.43;13.30;;;-0.10;1.00;;;;;;4975406;28;20255;-81
2022/03/06 02:31:40;;;;;;;20.97;14.00;;;1.20;1.00;;;;;;5011215;28;20340;-79
2022/03/06 02:34:11;;;;;;;20.73;13.97;;;-0.10;1.00;;;;;;5011600;28;20236;-80
2022/03/06 02:36:39;;;;;;;20.67;13.97;;;-0.20;1.00;;;;;;5026049;28;20201;-81
2022/03/06 02:39:10;;;;;;;19.17;12.37;;;2.30;1.00;;;;;;4995204;28;20217;-80
2022/03/06 02:41:39;;;;;;;20.73;13.60;;;-0.40;1.00;;;;;;5007715;28;20296;-80
2022/03/06 02:44:14;;;;;;;19.97;13.80;;;-0.40;37.00;;;;;;5011612;28;20193;-83
2022/03/06 02:46:54;;;;;;;19.70;13.20;;;1.50;54.70;;;;;;5015598;28;20241;-81
2022/03/06 02:49:37;;;;;;;19.70;13.87;;;1.70;18.30;;;;;;5017627;28;20772;-79
2022/03/06 02:52:48;;;;;;;23.57;13.90;;;-0.60;5.70;;;;;;4970342;28;20225;-82
2022/03/06 02:55:25;;;;;;;23.30;14.13;;;0.10;1.00;;;;;;4977371;28;20206;-82
2022/03/06 02:57:57;;;;;;;27.90;15.43;;;0.20;1.00;;;;;;4977590;28;20611;-81
2022/03/06 03:00:25;;;;;;;25.50;15.80;;;0.00;1.00;;;;;;4971116;28;20229;-81
2022/03/06 03:02:54;;;;;;;27.77;16.93;;;0.10;1.00;;;;;;4961281;28;20789;-81
2022/03/06 03:05:26;;;;;;;30.10;17.03;;;0.10;1.00;;;;;;4989443;28;20694;-80
2022/03/06 03:08:08;;;;;;;28.33;17.43;;;0.90;1.00;;;;;;4987194;28;21005;-81
2022/03/06 03:10:38;;;;;;;21.03;13.83;;;0.30;1.00;;;;;;4977683;28;20667;-80
2022/03/06 03:13:06;;;;;;;24.03;15.27;;;0.30;1.00;;;;;;4975948;28;20217;-81
2022/03/06 03:15:34;;;;;;;27.67;16.70;;;0.40;1.00;;;;;;4976339;28;21282;-81
2022/03/06 03:18:01;;;;;;;21.80;13.80;;;0.40;1.00;;;;;;4989769;28;20209;-80
2022/03/06 03:20:29;;;;;;;22.20;14.30;;;0.30;1.00;;;;;;4979932;28;20240;-81
2022/03/06 03:23:00;;;;;;;20.30;14.53;;;0.50;1.00;;;;;;4972444;28;20733;-82
2022/03/06 03:25:28;;;;;;;24.37;15.17;;;0.40;1.00;;;;;;4976760;28;20212;-80
2022/03/06 03:28:02;;;;;;;22.37;14.60;;;0.30;1.00;;;;;;4988630;28;20612;-81
2022/03/06 03:30:49;;;;;;;24.83;15.23;;;0.40;1.00;;;;;;5000012;28;20204;-81
2022/03/06 03:33:50;;;;;;;19.67;13.73;;;0.40;1.00;;;;;;4991581;28;20212;-81
2022/03/06 03:36:20;;;;;;;21.80;14.03;;;-0.90;1.00;;;;;;5009688;28;20203;-81
2022/03/06 03:38:52;;;;;;;18.50;13.17;;;1.60;1.00;;;;;;5011751;28;20201;-82
2022/03/06 03:41:51;;;;;;;25.77;13.57;;;0.80;1.00;;;;;;5000845;28;20512;-82
2022/03/06 03:44:24;;;;;;;20.67;13.17;;;0.50;1.00;;;;;;5013552;28;20217;-81
2022/03/06 03:46:59;;;;;;;19.13;13.53;;;0.50;1.00;;;;;;5011225;28;20263;-82
2022/03/06 03:49:37;;;;;;;23.90;15.17;;;0.70;1.00;;;;;;5011391;28;20269;-81
2022/03/06 03:52:30;;;;;;;25.93;14.63;;;0.80;1.00;;;;;;4994992;28;20214;-81
2022/03/06 03:55:04;;;;;;;22.77;14.03;;;0.50;1.00;;;;;;5011713;28;20570;-81
2022/03/06 03:57:38;;;;;;;19.73;14.00;;;0.60;1.00;;;;;;4961711;28;20247;-82
2022/03/06 04:00:10;;;;;;;24.70;14.73;;;1.30;1.00;;;;;;4995810;28;20193;-81
2022/03/06 04:03:04;;;;;;;21.37;13.77;;;0.50;1.00;;;;;;4997033;28;20225;-82
2022/03/06 04:05:49;;;;;;;22.77;13.33;;;0.00;1.00;;;;;;5014133;28;20219;-82
2022/03/06 04:08:32;;;;;;;20.37;13.60;;;-0.40;1.00;;;;;;5001859;28;20771;-81
2022/03/06 04:11:11;;;;;;;20.77;13.43;;;-0.30;1.00;;;;;;4999314;28;20228;-82
2022/03/06 04:14:00;;;;;;;19.60;13.77;;;0.60;1.00;;;;;;5003305;28;20218;-82
2022/03/06 04:16:57;;;;;;;20.53;13.67;;;0.00;25.50;;;;;;5005117;28;20203;-81
2022/03/06 04:19:36;;;;;;;19.23;12.93;;;0.10;22.80;;;;;;4991667;28;20239;-81
2022/03/06 04:22:12;;;;;;;20.27;13.57;;;0.00;99.90;;;;;;5016982;28;20276;-81
2022/03/06 04:24:46;;;;;;;20.50;14.40;;;0.20;63.60;;;;;;5012477;28;20621;-81
2022/03/06 04:27:15;;;;;;;21.97;14.57;;;-0.10;45.60;;;;;;5000467;28;20256;-82
2022/03/06 04:29:51;;;;;;;23.93;14.67;;;-0.70;27.00;;;;;;5018611;28;20205;-81
2022/03/06 04:32:23;;;;;;;22.77;15.00;;;-0.10;5.60;;;;;;5009280;28;20225;-81
2022/03/06 04:35:06;;;;;;;24.97;14.90;;;-0.30;34.40;;;;;;5012330;28;20193;-81
2022/03/06 04:37:39;;;;;;;23.03;15.40;;;0.00;47.00;;;;;;5000077;28;20193;-85
2022/03/06 04:40:26;;;;;;;22.87;14.73;;;-0.30;99.90;;;;;;5003031;28;20199;-82
2022/03/06 04:42:55;;;;;;;24.13;14.43;;;-0.20;99.90;;;;;;5011263;28;20212;-82
2022/03/06 04:45:27;;;;;;;21.20;14.10;;;-0.30;99.90;;;;;;5018553;28;20304;-82
2022/03/06 04:48:13;;;;;;;22.50;14.33;;;0.20;88.50;;;;;;5014306;28;20192;-82
2022/03/06 04:50:41;;;;;;;19.27;13.53;;;-0.30;99.90;;;;;;5016416;28;20670;-81
2022/03/06 04:53:25;;;;;;;22.23;13.77;;;-0.80;99.90;;;;;;5002481;28;20225;-83
2022/03/06 04:55:57;;;;;;;21.00;14.40;;;-0.70;99.90;;;;;;5015682;28;20229;-82
2022/03/06 04:58:33;;;;;;;25.43;15.10;;;-2.70;99.90;;;;;;5016007;28;20198;-82
2022/03/06 05:01:07;;;;;;;21.97;14.23;;;0.00;99.90;;;;;;4996765;28;20221;-82
2022/03/06 05:03:46;;;;;;;22.33;15.40;;;0.90;99.90;;;;;;4992956;28;20233;-81
2022/03/06 05:06:37;;;;;;;25.53;15.27;;;-0.70;99.90;;;;;;4999278;28;20213;-81
2022/03/06 05:09:05;;;;;;;22.97;14.27;;;-1.10;99.90;;;;;;4998798;28;20202;-82
2022/03/06 05:11:46;;;;;;;22.90;14.97;;;-2.00;99.90;;;;;;5003144;28;20259;-82
2022/03/06 05:14:26;;;;;;;23.23;14.93;;;-1.20;99.90;;;;;;4996587;28;20213;-82
2022/03/06 05:17:11;;;;;;;24.73;15.43;;;-1.60;1.00;;;;;;5000587;28;20193;-81
2022/03/06 05:19:54;;;;;;;28.43;16.40;;;-1.50;1.00;;;;;;5017938;28;20287;-81
2022/03/06 05:22:26;;;;;;;22.03;14.97;;;-1.30;1.00;;;;;;5009617;28;20664;-81
2022/03/06 05:24:58;;;;;;;24.60;15.47;;;-1.30;1.00;;;;;;4997969;28;20185;-81
2022/03/06 05:27:32;;;;;;;24.23;15.90;;;-2.20;1.00;;;;;;5012763;28;20656;-81
2022/03/06 05:30:06;;;;;;;24.27;15.67;;;-1.40;1.00;;;;;;4985217;28;20204;-82
2022/03/06 05:32:49;;;;;;;24.77;15.70;;;-1.00;1.00;;;;;;5000806;28;20212;-81
2022/03/06 05:35:24;;;;;;;25.77;15.93;;;0.80;1.00;;;;;;5015130;28;20205;-81
2022/03/06 05:38:14;;;;;;;23.50;14.77;;;-2.50;1.00;;;;;;5008979;28;20208;-83
2022/03/06 05:40:49;;;;;;;26.70;15.33;;;-0.70;1.00;;;;;;5013194;28;20201;-81
2022/03/06 05:43:23;;;;;;;23.33;15.73;;;-1.80;1.00;;;;;;5012529;28;20247;-81
2022/03/06 05:46:08;;;;;;;25.13;15.43;;;-2.00;1.00;;;;;;4997283;28;20219;-82
2022/03/06 05:48:49;;;;;;;24.27;15.50;;;-1.50;1.00;;;;;;5004040;28;20239;-81
2022/03/06 05:51:30;;;;;;;21.53;14.47;;;-1.10;1.00;;;;;;4998996;28;20745;-81
2022/03/06 05:54:04;;;;;;;25.90;16.47;;;-0.50;1.00;;;;;;4999392;28;20316;-82
2022/03/06 05:56:55;;;;;;;28.27;15.97;;;-0.20;1.00;;;;;;4993476;28;20297;-81
2022/03/06 05:59:30;;;;;;;30.27;16.63;;;-2.20;1.00;;;;;;4997173;28;20204;-81
2022/03/06 06:02:08;;;;;;;27.20;16.97;;;-2.20;1.00;;;;;;4998134;28;20200;-81
2022/03/06 06:04:36;;;;;;;29.40;17.97;;;-0.40;1.00;;;;;;4998023;28;20205;-81
2022/03/06 06:07:08;;;;;;;27.17;17.43;;;-2.00;1.00;;;;;;5023857;28;20337;-82
2022/03/06 06:09:36;;;;;;;25.77;16.17;;;-1.90;1.00;;;;;;4995013;28;20205;-81
2022/03/06 06:12:08;;;;;;;30.83;17.53;;;-2.40;1.00;;;;;;4958977;28;20244;-81
2022/03/06 06:14:37;;;;;;;25.90;16.70;;;-1.80;1.00;;;;;;5009879;28;20228;-82
2022/03/06 06:17:07;;;;;;;26.90;17.67;;;-1.40;1.00;;;;;;4996734;28;20707;-81
2022/03/06 06:19:44;;;;;;;24.23;16.07;;;-1.50;1.00;;;;;;4995781;28;20224;-80
2022/03/06 06:22:33;;;;;;;27.43;18.10;;;0.90;99.90;;;;;;5009663;28;20204;-80
2022/03/06 06:25:03;;;;;;;39.73;18.93;;;0.00;99.90;;;;;;4999097;28;20211;-81
2022/03/06 06:27:36;;;;;;;28.70;17.80;;;-0.90;99.90;;;;;;4998707;28;20217;-82
2022/03/06 06:30:19;;;;;;;26.33;17.17;;;-0.50;99.90;;;;;;4995709;28;20212;-81
2022/03/06 06:32:51;;;;;;;41.87;22.70;;;-0.60;99.90;;;;;;5009421;28;20205;-81
2022/03/06 06:35:24;;;;;;;27.17;18.30;;;-0.40;79.30;;;;;;5013025;28;20265;-80
2022/03/06 06:37:59;;;;;;;27.37;17.60;;;-0.30;51.90;;;;;;4995575;28;20223;-81
2022/03/06 06:40:37;;;;;;;25.90;16.97;;;0.20;51.10;;;;;;4991929;28;20240;-80
2022/03/06 06:43:07;;;;;;;24.63;15.47;;;1.30;1.00;;;;;;5023186;28;20204;-82
2022/03/06 06:45:44;;;;;;;23.03;16.17;;;1.40;1.00;;;;;;5014410;28;20201;-80
2022/03/06 06:48:30;;;;;;;21.37;15.03;;;1.50;1.00;;;;;;5011436;28;20217;-81
2022/03/06 06:51:12;;;;;;;21.77;15.17;;;1.90;1.00;;;;;;5009070;28;20212;-81
2022/03/06 06:53:44;;;;;;;25.30;16.07;;;1.90;1.00;;;;;;5012258;28;20236;-82
2022/03/06 06:56:14;;;;;;;21.63;14.40;;;3.80;1.00;;;;;;5026715;28;20610;-82
2022/03/06 06:58:42;;;;;;;19.53;13.53;;;6.10;1.00;;;;;;5000395;28;20185;-83
2022/03/06 07:01:17;;;;;;;17.77;13.57;;;7.60;1.00;;;;;;5009751;28;20211;-84
2022/03/06 07:03:50;;;;;;;18.53;13.53;;;8.80;1.00;;;;;;5013369;28;20211;-85
2022/03/06 07:06:18;;;;;;;20.67;14.37;;;9.70;1.00;;;;;;5027623;28;20205;-81
2022/03/06 07:08:49;;;;;;;18.63;14.07;;;10.50;1.00;;;;;;5007923;28;20209;-82
2022/03/06 07:11:21;;;;;;;23.20;18.83;;;11.50;1.00;;;;;;4994639;28;20247;-85
2022/03/06 07:13:50;;;;;;;17.20;14.43;;;10.50;1.00;;;;;;5000743;28;20213;-85
2022/03/06 07:16:20;;;;;;;17.03;13.93;;;12.30;1.00;;;;;;5001362;28;20201;-84
2022/03/06 07:18:50;;;;;;;19.93;13.37;;;13.10;1.00;;;;;;5027799;28;20207;-83
2022/03/06 07:21:21;;;;;;;18.93;14.07;;;12.70;1.00;;;;;;4994800;28;20212;-84
2022/03/06 07:23:51;;;;;;;15.73;13.75;;;13.50;1.00;;;;;;5009904;28;20198;-82
2022/03/06 07:26:31;;;;;;;17.67;15.00;;;13.90;1.00;;;;;;4997692;28;20208;-82
2022/03/06 07:28:58;;;;;;;18.92;14.55;;;15.00;1.00;;;;;;5008648;28;20265;-84
2022/03/06 07:31:29;;;;;;;22.10;15.63;;;15.60;1.00;;;;;;4990269;28;20202;-84
2022/03/06 07:34:03;;;;;;;15.98;12.70;;;15.70;1.00;;;;;;4991369;28;20219;-83
2022/03/06 07:36:32;;;;;;;19.17;16.10;;;14.80;1.00;;;;;;5025470;28;20197;-86
2022/03/06 07:39:17;;;;;;;20.98;17.60;;;12.50;1.00;;;;;;4997473;28;20302;-84
2022/03/06 07:41:55;;;;;;;16.95;15.15;;;10.50;1.00;;;;;;5016898;28;20197;-84
2022/03/06 07:44:41;;;;;;;15.02;12.60;;;8.60;1.00;;;;;;5004534;28;20212;-85
2022/03/06 07:47:13;;;;;;;16.08;13.40;;;7.80;1.00;;;;;;5020918;28;20254;-82
2022/03/06 07:49:43;;;;;;;19.02;16.98;;;7.10;1.00;;;;;;5005238;28;20379;-84
2022/03/06 07:52:10;;;;;;;16.73;14.23;;;6.40;1.00;;;;;;5002468;28;20673;-82
2022/03/06 07:54:40;;;;;;;18.63;14.73;;;6.20;1.00;;;;;;4995011;28;20224;-80
2022/03/06 07:57:10;;;;;;;17.87;14.93;;;6.00;1.00;;;;;;5004493;28;20743;-85
2022/03/06 07:59:46;;;;;;;15.93;13.60;;;7.60;1.00;;;;;;4989991;28;20202;-84
2022/03/06 08:02:14;;;;;;;14.80;12.90;;;5.60;1.00;;;;;;5002022;28;20201;-82
2022/03/06 08:04:47;;;;;;;17.00;12.53;;;5.60;1.00;;;;;;5004989;28;20193;-82
2022/03/06 08:07:18;;;;;;;16.17;12.27;;;5.50;1.00;;;;;;5005506;28;20233;-80
2022/03/06 08:09:48;;;;;;;15.90;13.33;;;5.50;1.00;;;;;;4985760;28;20232;-80
2022/03/06 08:12:27;;;;;;;15.60;11.77;;;6.00;1.00;;;;;;4994043;28;20240;-79
2022/03/06 08:14:59;;;;;;;17.30;13.23;;;5.70;1.00;;;;;;5003598;28;20209;-79
2022/03/06 08:17:27;;;;;;;17.47;12.50;;;5.20;1.00;;;;;;5018811;28;20272;-79
2022/03/06 08:19:57;;;;;;;14.73;11.90;;;6.30;1.00;;;;;;5003958;28;20197;-79
2022/03/06 08:22:29;;;;;;;16.43;12.97;;;5.50;1.00;;;;;;5005899;28;20236;-79
2022/03/06 08:25:02;;;;;;;15.50;12.20;;;5.70;1.00;;;;;;5009152;28;20214;-79
2022/03/06 08:27:46;;;;;;;16.33;12.80;;;5.70;1.00;;;;;;4993408;28;20201;-78
2022/03/06 08:30:26;;;;;;;23.00;18.30;;;6.10;1.00;;;;;;4984781;28;20205;-79
2022/03/06 08:33:00;;;;;;;27.53;19.50;;;6.30;1.00;;;;;;5018686;28;20672;-79
2022/03/06 08:35:41;;;;;;;17.43;13.07;;;6.70;1.00;;;;;;5020943;28;20323;-82
2022/03/06 08:38:28;;;;;;;22.07;14.00;;;7.10;1.00;;;;;;5018526;28;20198;-82
2022/03/06 08:40:56;;;;;;;15.73;12.17;;;7.80;1.00;;;;;;4984954;28;20263;-78
2022/03/06 08:43:24;;;;;;;17.17;13.87;;;6.70;1.00;;;;;;5001963;28;20224;-80
2022/03/06 08:46:09;;;;;;;16.37;12.73;;;7.20;1.00;;;;;;5008455;28;20189;-79
2022/03/06 08:48:41;;;;;;;19.03;12.13;;;6.70;1.00;;;;;;4993963;28;20252;-79
2022/03/06 08:51:13;;;;;;;16.30;11.63;;;6.80;1.00;;;;;;5007754;28;20203;-79
2022/03/06 08:53:45;;;;;;;14.83;11.00;;;6.20;1.00;;;;;;5020800;28;20565;-80
2022/03/06 08:56:14;;;;;;;16.40;12.73;;;5.90;1.00;;;;;;5010991;28;20689;-80
2022/03/06 08:58:43;;;;;;;12.93;10.63;;;6.00;1.00;;;;;;5013983;28;20193;-80
2022/03/06 09:01:15;;;;;;;17.93;11.73;;;5.90;1.00;;;;;;5007567;28;21136;-80
2022/03/06 09:03:48;;;;;;;18.60;12.40;;;7.00;1.00;;;;;;5006711;28;20205;-79
2022/03/06 09:06:18;;;;;;;14.90;12.07;;;6.10;1.00;;;;;;5012636;28;20671;-79
2022/03/06 09:08:47;;;;;;;18.77;11.97;;;6.50;1.00;;;;;;5020766;28;20200;-79
2022/03/06 09:11:17;;;;;;;13.87;10.60;;;13.20;1.00;;;;;;4996753;28;20672;-81
2022/03/06 09:13:45;;;;;;;13.40;10.37;;;18.30;1.00;;;;;;4999591;28;20632;-80
2022/03/06 09:16:16;;;;;;;13.10;10.43;;;18.80;1.00;;;;;;5009795;28;20229;-84
2022/03/06 09:18:47;;;;;;;13.83;10.40;;;19.40;1.00;;;;;;5008794;28;20208;-82
2022/03/06 09:21:18;;;;;;;12.75;10.45;;;20.10;1.00;;;;;;5009433;28;20212;-83
2022/03/06 09:23:45;;;;;;;14.40;11.43;;;20.00;1.00;;;;;;5008099;28;20300;-81
2022/03/06 09:26:18;;;;;;;13.32;10.20;;;20.40;1.00;;;;;;4997011;28;20201;-85
2022/03/06 09:28:49;;;;;;;11.35;10.15;;;22.30;99.90;;;;;;5010218;28;20606;-82
2022/03/06 09:31:22;;;;;;;14.27;10.55;;;21.50;99.90;;;;;;5000940;28;20225;-83
2022/03/06 09:33:49;;;;;;;12.98;10.20;;;19.70;99.90;;;;;;5005927;28;20201;-81
2022/03/06 09:36:39;;;;;;;10.93;9.75;;;20.30;99.90;;;;;;5005608;28;20205;-82
2022/03/06 09:39:07;;;;;;;14.48;11.85;;;20.70;1.00;;;;;;4990234;28;20315;-84
2022/03/06 09:41:38;;;;;;;13.73;11.48;;;22.50;1.00;;;;;;5018178;28;20240;-85
2022/03/06 09:44:11;;;;;;;12.50;11.15;;;21.30;1.00;;;;;;5005662;28;20224;-83
2022/03/06 09:46:42;;;;;;;13.90;12.40;;;21.40;99.90;;;;;;4987823;28;20779;-82
2022/03/06 09:49:15;;;;;;;13.18;11.20;;;23.00;99.90;;;;;;5002427;28;20232;-82
2022/03/06 09:51:49;;;;;;;10.95;9.85;;;24.00;99.90;;;;;;5007376;28;20197;-84
2022/03/06 09:54:24;;;;;;;12.00;10.10;;;20.90;99.90;;;;;;5017528;28;20222;-85
2022/03/06 09:57:00;;;;;;;14.98;11.48;;;21.70;99.90;;;;;;4993659;28;20194;-83
2022/03/06 09:59:30;;;;;;;13.40;11.50;;;21.40;1.00;;;;;;5019597;28;20201;-83
2022/03/06 10:02:10;;;;;;;14.15;11.57;;;18.60;1.00;;;;;;4993139;28;20215;-80
2022/03/06 10:04:52;;;;;;;13.68;11.88;;;18.30;99.90;;;;;;5019465;28;20378;-81
2022/03/06 10:07:19;;;;;;;12.15;10.95;;;20.00;99.90;;;;;;5004738;28;20205;-79
2022/03/06 10:09:54;;;;;;;14.13;11.40;;;21.00;99.90;;;;;;5003223;28;20205;-83
2022/03/06 10:12:27;;;;;;;15.23;13.43;;;21.30;99.90;;;;;;4986745;28;20232;-80
2022/03/06 10:15:16;;;;;;;19.75;15.45;;;21.30;99.90;;;;;;5000774;28;20235;-82
2022/03/06 10:17:46;;;;;;;14.00;12.05;;;23.40;99.90;;;;;;5002602;28;20672;-80
2022/03/06 10:20:16;;;;;;;13.23;10.55;;;21.00;99.90;;;;;;4990794;28;20207;-80
2022/03/06 10:22:54;;;;;;;12.80;11.50;;;21.80;99.90;;;;;;4993214;28;20190;-79
2022/03/06 10:25:27;;;;;;;13.02;11.73;;;21.30;99.90;;;;;;5003609;28;20209;-80
2022/03/06 10:28:04;;;;;;;14.10;12.70;;;23.80;99.90;;;;;;5022102;28;20203;-80
2022/03/06 10:30:41;;;;;;;13.85;12.30;;;24.00;99.90;;;;;;5006215;28;20196;-81
2022/03/06 10:33:20;;;;;;;14.30;12.45;;;22.40;99.90;;;;;;5009276;28;20196;-80
2022/03/06 10:35:53;;;;;;;15.60;12.43;;;24.10;99.90;;;;;;4990527;28;20268;-81
2022/03/06 10:38:33;;;;;;;13.90;12.50;;;20.10;99.90;;;;;;5006142;28;20185;-82
2022/03/06 10:41:18;;;;;;;13.15;11.85;;;20.60;99.90;;;;;;5019600;28;20279;-79
2022/03/06 10:43:49;;;;;;;13.60;12.25;;;20.40;99.90;;;;;;5012446;28;20194;-81
2022/03/06 10:46:19;;;;;;;13.90;12.50;;;20.60;99.90;;;;;;5020234;28;20185;-81
2022/03/06 10:49:02;;;;;;;14.82;13.35;;;15.90;99.90;;;;;;4992546;28;20218;-83
2022/03/06 10:51:40;;;;;;;15.50;13.90;;;13.50;99.90;;;;;;5004005;28;20240;-82
2022/03/06 10:54:13;;;;;;;16.00;13.60;;;11.00;99.90;;;;;;4990472;28;20239;-79
2022/03/06 10:56:49;;;;;;;14.60;12.73;;;10.20;99.90;;;;;;4989300;28;20846;-79
2022/03/06 10:59:25;;;;;;;15.63;13.50;;;11.00;99.90;;;;;;5013552;28;20186;-81
2022/03/06 11:01:57;;;;;;;13.07;11.20;;;11.00;99.90;;;;;;5034427;28;20196;-79
2022/03/06 11:04:29;;;;;;;12.07;10.77;;;11.90;99.90;;;;;;5004755;28;20217;-86
2022/03/06 11:07:00;;;;;;;12.07;10.50;;;16.40;99.90;;;;;;5009124;28;20205;-81
2022/03/06 11:09:30;;;;;;;11.60;10.40;;;17.70;99.90;;;;;;5006478;28;20235;-83
2022/03/06 11:12:06;;;;;;;11.90;10.47;;;16.90;99.90;;;;;;5004053;28;20268;-81
2022/03/06 11:14:37;;;;;;;10.87;9.77;;;17.80;99.90;;;;;;5004337;28;20214;-80
2022/03/06 11:17:08;;;;;;;11.60;9.83;;;13.70;99.90;;;;;;5018907;28;20204;-84
2022/03/06 11:19:38;;;;;;;13.57;11.30;;;10.70;99.90;;;;;;4985848;28;20203;-83
2022/03/06 11:22:30;;;;;;;11.53;10.27;;;9.50;99.90;;;;;;5009587;28;20231;-85
2022/03/06 11:25:11;;;;;;;11.30;10.20;;;10.00;99.90;;;;;;5003675;28;20668;-83
2022/03/06 11:28:05;;;;;;;9.67;8.53;;;10.70;99.90;;;;;;5003769;28;20295;-81
2022/03/06 11:30:37;;;;;;;12.40;9.47;;;11.40;99.90;;;;;;4983195;28;20612;-81
2022/03/06 11:33:21;;;;;;;11.73;9.50;;;10.80;99.90;;;;;;5017414;28;20216;-85
2022/03/06 11:35:52;;;;;;;10.87;9.70;;;11.20;99.90;;;;;;5005565;28;20308;-83
2022/03/06 11:38:40;;;;;;;12.00;10.37;;;11.10;99.90;;;;;;5002259;28;20259;-83
2022/03/06 11:41:13;;;;;;;12.17;9.80;;;11.20;99.90;;;;;;4987967;28;20263;-84
2022/03/06 11:43:48;;;;;;;13.90;12.00;;;11.50;99.90;;;;;;4968783;28;20232;-84
2022/03/06 11:46:26;;;;;;;11.00;10.00;;;12.30;1.00;;;;;;5000069;28;20192;-79
2022/03/06 11:48:56;;;;;;;10.87;9.77;;;13.80;99.90;;;;;;5005226;28;20961;-81
2022/03/06 11:51:29;;;;;;;11.07;9.83;;;13.30;99.90;;;;;;5004587;28;20753;-86
2022/03/06 11:54:07;;;;;;;10.97;9.87;;;11.50;99.90;;;;;;4996921;28;20250;-85
2022/03/06 11:56:39;;;;;;;12.43;10.27;;;10.40;99.90;;;;;;5002874;28;20653;-83
2022/03/06 11:59:22;;;;;;;11.53;10.33;;;9.80;99.90;;;;;;4999974;28;20613;-79
2022/03/06 12:01:55;;;;;;;12.00;10.03;;;9.10;99.90;;;;;;4985227;28;20304;-81
2022/03/06 12:04:30;;;;;;;12.77;10.60;;;8.20;99.90;;;;;;5017188;28;20197;-79
2022/03/06 12:07:05;;;;;;;12.20;10.87;;;8.50;99.90;;;;;;4983661;28;20198;-80
2022/03/06 12:09:40;;;;;;;12.37;10.53;;;8.20;99.90;;;;;;5017973;28;20189;-80
2022/03/06 12:12:18;;;;;;;11.90;10.17;;;8.30;99.90;;;;;;4999512;28;20220;-79
2022/03/06 12:14:55;;;;;;;11.50;10.17;;;8.60;99.90;;;;;;4991106;28;20687;-79
2022/03/06 12:17:30;;;;;;;11.97;9.97;;;8.50;99.90;;;;;;5002808;28;20200;-79
2022/03/06 12:19:57;;;;;;;10.57;9.17;;;8.50;99.90;;;;;;4993350;28;20197;-78
2022/03/06 12:22:29;;;;;;;10.97;9.20;;;10.70;1.00;;;;;;5001068;28;20735;-80
2022/03/06 12:25:10;;;;;;;10.27;8.27;;;8.60;99.90;;;;;;5018106;28;20196;-80
2022/03/06 12:28:10;;;;;;;11.03;8.60;;;8.60;99.90;;;;;;5003480;28;20192;-79
2022/03/06 12:30:44;;;;;;;9.50;8.50;;;8.70;99.90;;;;;;4984941;28;20211;-80
2022/03/06 12:33:29;;;;;;;10.97;8.77;;;9.00;99.90;;;;;;5007283;28;20400;-80
2022/03/06 12:36:14;;;;;;;9.40;7.80;;;8.90;99.90;;;;;;5017328;28;20209;-78
2022/03/06 12:38:51;;;;;;;12.27;8.63;;;8.40;99.90;;;;;;5004541;28;20213;-80
2022/03/06 12:41:19;;;;;;;11.03;8.80;;;8.40;99.90;;;;;;5003936;28;20212;-80
2022/03/06 12:44:01;;;;;;;9.57;8.03;;;8.70;1.00;;;;;;5019858;28;20201;-84
2022/03/06 12:46:32;;;;;;;10.53;8.43;;;9.50;99.90;;;;;;4989852;28;20197;-80
2022/03/06 12:49:02;;;;;;;8.37;7.37;;;9.00;1.00;;;;;;4999667;28;20225;-79
2022/03/06 12:51:38;;;;;;;9.83;7.17;;;8.90;99.90;;;;;;5008089;28;20224;-79
2022/03/06 12:54:17;;;;;;;9.90;8.00;;;10.50;99.90;;;;;;5003032;28;20236;-79
2022/03/06 12:56:51;;;;;;;10.13;8.03;;;8.70;99.90;;;;;;5007533;28;20256;-81
2022/03/06 12:59:27;;;;;;;10.63;7.67;;;8.90;99.90;;;;;;4993046;28;20253;-79
2022/03/06 13:02:00;;;;;;;8.77;7.50;;;8.40;99.90;;;;;;5008051;28;20227;-79
2022/03/06 13:04:29;;;;;;;8.47;7.57;;;8.10;1.00;;;;;;4990283;28;20209;-79
2022/03/06 13:06:57;;;;;;;10.80;7.87;;;7.90;1.00;;;;;;5008567;28;20291;-80
2022/03/06 13:09:34;;;;;;;8.40;7.10;;;6.80;1.00;;;;;;4994140;28;20212;-81
2022/03/06 13:12:12;;;;;;;8.27;6.97;;;7.80;99.90;;;;;;4995464;28;20258;-80
2022/03/06 13:14:50;;;;;;;10.07;7.83;;;7.70;99.90;;;;;;4988965;28;20200;-80
2022/03/06 13:17:21;;;;;;;11.27;7.70;;;6.60;99.90;;;;;;5005479;28;20302;-80